createdAt,value
2018-10-06T00:03:42.454Z,10.82
2018-10-06T00:08:46.234Z,10.87
2018-10-06T00:13:49.798Z,10.82
2018-10-06T00:18:53.617Z,10.75
2018-10-06T00:23:59.034Z,10.68
2018-10-06T00:29:02.740Z,10.62
2018-10-06T00:34:06.258Z,10.47
2018-10-06T00:39:10.081Z,10.46
2018-10-06T00:44:13.955Z,10.41
2018-10-06T00:49:17.622Z,10.50
2018-10-06T00:54:21.461Z,10.53
2018-10-06T00:59:24.973Z,10.30
2018-10-06T01:04:28.527Z,9.92
2018-10-06T01:09:32.160Z,9.53
2018-10-06T01:14:35.759Z,9.64
2018-10-06T01:19:39.428Z,9.74
2018-10-06T01:24:43.044Z,9.64
2018-10-06T01:29:46.633Z,9.78
2018-10-06T01:34:50.251Z,9.84
2018-10-06T01:39:53.825Z,9.58
2018-10-06T01:44:57.386Z,9.46
2018-10-06T01:50:01.107Z,9.38
2018-10-06T01:55:04.807Z,9.51
2018-10-06T02:00:08.917Z,9.52
2018-10-06T02:05:12.892Z,9.48
2018-10-06T02:10:16.481Z,9.30
2018-10-06T02:15:20.178Z,9.22
2018-10-06T02:20:23.869Z,9.21
2018-10-06T02:25:27.975Z,9.28
2018-10-06T02:30:33.961Z,9.04
2018-10-06T02:35:37.724Z,8.85
2018-10-06T02:40:41.335Z,8.78
2018-10-06T02:45:44.883Z,8.76
2018-10-06T02:50:48.944Z,8.81
2018-10-06T02:55:52.555Z,9.01
2018-10-06T03:00:56.132Z,9.13
2018-10-06T03:05:59.674Z,9.02
2018-10-06T03:11:03.355Z,8.71
2018-10-06T03:16:07.133Z,8.35
2018-10-06T03:21:10.621Z,8.57
2018-10-06T03:26:14.291Z,8.73
2018-10-06T03:31:17.918Z,8.63
2018-10-06T03:36:21.478Z,8.37
2018-10-06T03:41:25.229Z,8.41
2018-10-06T03:46:28.809Z,8.55
2018-10-06T03:51:32.570Z,8.50
2018-10-06T03:56:36.170Z,8.35
2018-10-06T04:01:49.200Z,8.47
2018-10-06T04:06:52.762Z,8.39
2018-10-06T04:11:56.694Z,8.37
2018-10-06T04:17:00.278Z,8.10
2018-10-06T04:22:03.898Z,7.94
2018-10-06T04:27:07.648Z,7.71
2018-10-06T04:32:11.322Z,7.70
2018-10-06T04:37:14.897Z,7.82
2018-10-06T04:42:18.516Z,7.85
2018-10-06T04:47:22.063Z,7.72
2018-10-06T04:52:25.624Z,7.91
2018-10-06T04:57:29.152Z,7.92
2018-10-06T05:02:32.829Z,7.78
2018-10-06T05:07:36.466Z,7.84
2018-10-06T05:12:40.157Z,7.84
2018-10-06T05:17:43.777Z,7.98
2018-10-06T05:22:47.468Z,8.05
2018-10-06T05:27:51.188Z,8.10
2018-10-06T05:32:54.908Z,7.82
2018-10-06T05:37:58.628Z,7.47
2018-10-06T05:43:02.245Z,7.69
2018-10-06T05:48:06.444Z,7.46
2018-10-06T05:53:10.016Z,7.71
2018-10-06T05:58:13.706Z,7.66
2018-10-06T06:03:17.265Z,7.80
2018-10-06T06:08:20.947Z,7.76
2018-10-06T06:13:24.989Z,7.73
2018-10-06T06:18:28.522Z,7.86
2018-10-06T06:23:32.291Z,8.08
2018-10-06T06:28:35.890Z,8.43
2018-10-06T06:33:39.454Z,8.81
2018-10-06T06:38:43.346Z,9.16
2018-10-06T06:43:47.089Z,9.43
2018-10-06T06:48:50.730Z,9.75
2018-10-06T06:53:54.458Z,10.10
2018-10-06T06:58:58.014Z,10.42
2018-10-06T07:04:01.852Z,10.86
2018-10-06T07:09:08.364Z,11.20
2018-10-06T07:14:12.068Z,11.53
2018-10-06T07:19:15.707Z,11.88
2018-10-06T07:24:19.514Z,12.17
2018-10-06T07:29:23.123Z,12.45
2018-10-06T07:34:33.063Z,12.75
2018-10-06T07:39:36.692Z,13.02
2018-10-06T07:44:40.346Z,13.37
2018-10-06T07:49:43.970Z,13.77
2018-10-06T07:54:47.797Z,14.03
2018-10-06T07:59:51.633Z,14.34
2018-10-06T08:04:55.336Z,14.70
2018-10-06T08:09:58.926Z,15.02
2018-10-06T08:15:02.471Z,15.20
2018-10-06T08:20:06.276Z,15.46
2018-10-06T08:25:09.907Z,15.66
2018-10-06T08:30:17.206Z,16.05
2018-10-06T08:35:20.835Z,16.13
2018-10-06T08:40:24.452Z,16.38
2018-10-06T08:45:28.284Z,16.83
2018-10-06T08:50:32.208Z,17.10
2018-10-06T08:55:35.966Z,17.49
2018-10-06T09:00:39.704Z,17.74
2018-10-06T09:05:43.509Z,18.03
2018-10-06T09:10:47.135Z,18.11
2018-10-06T09:15:52.663Z,18.48
2018-10-06T09:20:56.369Z,18.71
2018-10-06T09:26:01.889Z,18.99
2018-10-06T09:31:05.609Z,19.34
2018-10-06T09:36:09.155Z,19.66
2018-10-06T09:41:12.761Z,19.77
2018-10-06T09:46:16.397Z,20.00
2018-10-06T09:51:19.978Z,20.18
2018-10-06T09:56:23.616Z,20.42
2018-10-06T10:01:32.511Z,20.58
2018-10-06T10:06:36.320Z,20.62
2018-10-06T10:11:40.139Z,20.84
2018-10-06T10:16:43.706Z,21.01
2018-10-06T10:21:47.484Z,21.01
2018-10-06T10:26:51.144Z,21.19
2018-10-06T10:31:54.877Z,21.23
2018-10-06T10:36:58.576Z,21.29
2018-10-06T10:42:02.241Z,21.33
2018-10-06T10:47:06.086Z,21.60
2018-10-06T10:52:09.841Z,21.66
2018-10-06T10:57:13.394Z,21.77
2018-10-06T11:02:16.942Z,21.81
2018-10-06T11:07:20.520Z,21.93
2018-10-06T11:12:24.227Z,22.03
2018-10-06T11:17:27.881Z,22.20
2018-10-06T11:22:31.456Z,22.27
2018-10-06T11:27:35.100Z,22.26
2018-10-06T11:32:38.929Z,22.54
2018-10-06T11:37:42.631Z,22.67
2018-10-06T11:42:46.208Z,22.64
2018-10-06T11:47:49.832Z,22.87
2018-10-06T11:52:53.492Z,22.98
2018-10-06T11:57:57.103Z,22.98
2018-10-06T12:03:00.801Z,23.17
2018-10-06T12:08:04.563Z,23.16
2018-10-06T12:13:08.162Z,23.43
2018-10-06T12:18:11.798Z,23.51
2018-10-06T12:23:15.510Z,23.63
2018-10-06T12:28:19.064Z,23.92
2018-10-06T12:33:23.270Z,24.06
2018-10-06T12:38:26.784Z,24.36
2018-10-06T12:43:30.317Z,24.41
2018-10-06T12:48:34.134Z,24.42
2018-10-06T12:53:37.989Z,24.44
2018-10-06T12:58:41.616Z,24.58
2018-10-06T13:03:45.368Z,24.61
2018-10-06T13:08:49.260Z,24.47
2018-10-06T13:13:53.066Z,24.37
2018-10-06T13:18:56.696Z,24.38
2018-10-06T13:24:00.226Z,24.32
2018-10-06T13:29:03.883Z,24.17
2018-10-06T13:34:07.821Z,24.13
2018-10-06T13:39:11.880Z,24.17
2018-10-06T13:44:15.437Z,24.15
2018-10-06T13:49:18.987Z,24.13
2018-10-06T13:54:22.707Z,24.26
2018-10-06T13:59:26.278Z,24.21
2018-10-06T14:04:29.852Z,24.23
2018-10-06T14:09:33.521Z,24.05
2018-10-06T14:14:37.155Z,24.02
2018-10-06T14:19:40.729Z,23.95
2018-10-06T14:24:44.411Z,23.89
2018-10-06T14:29:48.007Z,23.82
2018-10-06T14:34:51.762Z,23.62
2018-10-06T14:39:55.305Z,23.59
2018-10-06T14:44:59.012Z,23.57
2018-10-06T14:50:02.888Z,23.73
2018-10-06T14:55:08.019Z,23.74
2018-10-06T15:00:13.350Z,23.72
2018-10-06T15:05:17.147Z,23.70
2018-10-06T15:10:20.716Z,23.72
2018-10-06T15:15:24.418Z,23.77
2018-10-06T15:20:28.011Z,23.79
2018-10-06T15:25:31.665Z,23.71
2018-10-06T15:30:35.366Z,23.57
2018-10-06T15:35:38.952Z,23.48
2018-10-06T15:40:42.775Z,23.36
2018-10-06T15:45:46.507Z,23.31
2018-10-06T15:50:50.144Z,23.15
2018-10-06T15:55:53.801Z,22.84
2018-10-06T16:00:57.632Z,22.58
2018-10-06T16:06:13.247Z,22.30
2018-10-06T16:11:16.909Z,22.13
2018-10-06T16:27:16.198Z,21.21
2018-10-06T16:32:20.232Z,20.75
2018-10-06T16:37:24.711Z,20.38
2018-10-06T16:42:28.507Z,20.13
2018-10-06T16:47:32.204Z,19.97
2018-10-06T16:52:36.152Z,19.76
2018-10-06T16:57:39.807Z,19.77
2018-10-06T17:02:43.509Z,19.78
2018-10-06T17:07:47.402Z,19.71
2018-10-06T17:12:50.909Z,19.54
2018-10-06T17:17:54.402Z,19.25
2018-10-06T17:22:58.157Z,19.03
2018-10-06T17:28:01.655Z,18.84
2018-10-06T17:33:05.469Z,18.73
2018-10-06T17:38:08.978Z,18.45
2018-10-06T17:43:12.812Z,18.20
2018-10-06T17:48:16.565Z,18.00
2018-10-06T17:53:20.094Z,17.85
2018-10-06T17:58:23.734Z,17.69
2018-10-06T18:03:28.228Z,17.67
2018-10-06T18:08:31.770Z,17.68
2018-10-06T18:13:35.354Z,17.75
2018-10-06T18:18:38.932Z,17.46
2018-10-06T18:23:42.466Z,17.26
2018-10-06T18:28:46.871Z,17.08
2018-10-06T18:33:52.226Z,17.09
2018-10-06T18:38:55.822Z,16.93
2018-10-06T18:43:59.325Z,16.90
2018-10-06T18:49:03.831Z,16.88
2018-10-06T18:54:07.320Z,16.83
2018-10-06T18:59:10.844Z,16.64
2018-10-06T19:04:14.567Z,16.54
2018-10-06T19:09:18.114Z,16.23
2018-10-06T19:14:21.714Z,16.25
2018-10-06T19:19:25.516Z,16.29
2018-10-06T19:24:29.098Z,16.10
2018-10-06T19:29:32.720Z,15.90
2018-10-06T19:34:36.287Z,15.75
2018-10-06T19:39:39.835Z,15.77
2018-10-06T19:44:43.654Z,15.80
2018-10-06T19:49:47.158Z,15.69
2018-10-06T19:54:50.740Z,15.58
2018-10-06T19:59:54.267Z,15.30
2018-10-06T20:04:57.932Z,15.25
2018-10-06T20:10:02.085Z,15.21
2018-10-06T20:15:05.866Z,15.25
2018-10-06T20:20:09.684Z,15.15
2018-10-06T20:25:13.388Z,15.21
2018-10-06T20:30:26.049Z,15.10
2018-10-06T20:35:29.724Z,15.07
2018-10-06T20:40:33.293Z,14.97
2018-10-06T20:45:36.891Z,14.98
2018-10-06T20:50:40.487Z,15.18
2018-10-06T20:55:44.089Z,14.88
2018-10-06T21:00:47.768Z,14.80
2018-10-06T21:05:51.339Z,14.65
2018-10-06T21:10:57.751Z,14.50
2018-10-06T21:16:01.268Z,14.24
2018-10-06T21:21:04.906Z,14.26
2018-10-06T21:26:08.897Z,14.53
2018-10-06T21:31:12.458Z,14.49
2018-10-06T21:36:16.010Z,14.36
2018-10-06T21:41:19.616Z,14.27
2018-10-06T21:46:23.211Z,14.22
2018-10-06T21:51:26.822Z,14.23
2018-10-06T21:56:30.365Z,14.32
2018-10-06T22:01:35.340Z,14.34
2018-10-06T22:06:39.000Z,14.28
2018-10-06T22:11:42.664Z,14.39
2018-10-06T22:16:46.240Z,14.58
2018-10-06T22:21:49.924Z,14.85
2018-10-06T22:26:53.628Z,14.81
2018-10-06T22:31:57.235Z,14.77
2018-10-06T22:37:00.914Z,14.71
2018-10-06T22:42:04.462Z,14.66
2018-10-06T22:47:09.780Z,14.67
2018-10-06T22:52:13.470Z,14.73
2018-10-06T22:57:17.042Z,14.78
2018-10-06T23:02:20.611Z,14.74
2018-10-06T23:07:24.228Z,14.72
2018-10-06T23:12:27.940Z,14.71
2018-10-06T23:17:31.514Z,14.59
2018-10-06T23:22:35.059Z,14.64
2018-10-06T23:27:38.758Z,14.71
2018-10-06T23:32:42.423Z,14.76
2018-10-06T23:37:46.072Z,14.62
2018-10-06T23:42:49.839Z,14.48
2018-10-06T23:47:53.463Z,14.37
2018-10-06T23:52:57.220Z,14.40
2018-10-06T23:58:00.844Z,14.26
